Time;durP1;ratioP1;P1;durP2;ratioP2;P2;SDS_P1;SDS_P2;PMS_P1;PMS_P2;Temp;Humidity;BMP_temperature;BMP_pressure;BME280_temperature;BME280_humidity;BME280_pressure;Samples;Min_cycle;Max_cycle;Signal;HPM_P1;HPM_P2
2023/07/18 00:01:13;;;;;;;2.50;1.50;;;19.60;98.70;;;;;;5035340;28;20167;-69
2023/07/18 00:03:39;;;;;;;2.47;1.73;;;19.70;98.80;;;;;;5027428;28;20178;-69
2023/07/18 00:06:05;;;;;;;2.83;1.43;;;19.60;98.80;;;;;;5033854;28;20458;-69
2023/07/18 00:08:30;;;;;;;1.80;1.40;;;19.60;98.80;;;;;;5034980;28;20426;-68
2023/07/18 00:10:56;;;;;;;1.97;1.40;;;19.60;99.30;;;;;;5035098;28;20167;-69
2023/07/18 00:13:22;;;;;;;3.00;1.67;;;19.60;99.30;;;;;;5034842;28;20176;-69
2023/07/18 00:15:48;;;;;;;2.23;1.50;;;19.50;99.80;;;;;;5043449;22;20227;-68
2023/07/18 00:18:14;;;;;;;4.30;2.03;;;19.50;99.70;;;;;;5026639;28;20163;-68
2023/07/18 00:20:41;;;;;;;4.30;1.83;;;19.50;99.50;;;;;;5026205;28;20168;-68
2023/07/18 00:23:10;;;;;;;2.30;1.43;;;19.40;99.30;;;;;;5025001;28;20417;-68
2023/07/18 00:25:36;;;;;;;2.77;1.50;;;19.40;99.60;;;;;;5027455;28;20417;-69
2023/07/18 00:28:01;;;;;;;5.37;1.80;;;19.30;99.90;;;;;;5032864;28;20414;-67
2023/07/18 00:30:27;;;;;;;2.57;1.83;;;19.30;99.90;;;;;;5034470;28;20401;-69
2023/07/18 00:32:52;;;;;;;2.23;1.13;;;19.20;99.90;;;;;;5033234;28;20258;-67
2023/07/18 00:35:18;;;;;;;2.90;1.63;;;19.20;99.90;;;;;;5034113;28;20653;-68
2023/07/18 00:37:44;;;;;;;3.33;1.67;;;19.10;99.90;;;;;;5034360;28;20195;-68
2023/07/18 00:40:12;;;;;;;2.87;1.47;;;19.00;99.90;;;;;;5034390;28;20166;-68
2023/07/18 00:42:39;;;;;;;2.10;1.80;;;19.10;99.90;;;;;;5034117;28;20765;-68
2023/07/18 00:45:07;;;;;;;2.90;1.67;;;19.20;99.70;;;;;;5034275;28;20418;-68
2023/07/18 00:47:37;;;;;;;3.43;1.30;;;19.10;99.50;;;;;;5031823;28;20402;-69
2023/07/18 00:50:10;;;;;;;5.23;1.93;;;19.00;99.70;;;;;;5032835;28;20401;-68
2023/07/18 00:52:41;;;;;;;5.03;1.67;;;19.00;99.90;;;;;;5034274;28;20391;-68
2023/07/18 00:55:09;;;;;;;3.30;1.50;;;19.00;99.90;;;;;;5033941;28;20481;-69
2023/07/18 00:57:36;;;;;;;3.33;1.50;;;19.00;99.90;;;;;;5033661;28;20413;-68
2023/07/18 01:00:08;;;;;;;2.50;1.80;;;19.00;99.90;;;;;;5034355;28;20398;-69
2023/07/18 01:02:34;;;;;;;3.17;1.63;;;19.00;99.90;;;;;;5034214;28;20418;-68
2023/07/18 01:05:00;;;;;;;3.70;1.57;;;19.00;99.90;;;;;;5032774;28;20422;-68
2023/07/18 01:07:26;;;;;;;3.90;1.60;;;18.90;99.90;;;;;;5033931;28;20403;-68
2023/07/18 01:09:53;;;;;;;2.50;1.43;;;18.90;99.90;;;;;;5033955;28;20187;-68
2023/07/18 01:12:19;;;;;;;2.60;1.57;;;18.90;99.90;;;;;;5033442;28;20166;-69
2023/07/18 01:14:45;;;;;;;2.83;1.50;;;18.70;99.90;;;;;;5033719;28;20513;-69
2023/07/18 01:17:12;;;;;;;4.47;1.57;;;18.70;99.90;;;;;;5033708;28;20646;-68
2023/07/18 01:19:37;;;;;;;2.03;1.50;;;18.70;99.90;;;;;;5033604;28;20408;-68
2023/07/18 01:22:03;;;;;;;3.07;1.60;;;18.60;99.90;;;;;;5033810;28;20406;-69
2023/07/18 01:24:29;;;;;;;3.90;1.50;;;18.70;99.90;;;;;;5033915;28;20198;-68
2023/07/18 01:26:54;;;;;;;2.07;1.50;;;18.50;99.90;;;;;;5030691;28;20179;-68
2023/07/18 01:29:20;;;;;;;3.60;1.57;;;18.50;99.90;;;;;;5033489;28;20171;-68
2023/07/18 01:31:48;;;;;;;2.97;1.90;;;18.70;99.90;;;;;;5033967;28;20251;-68
2023/07/18 01:34:14;;;;;;;2.33;1.70;;;18.80;99.90;;;;;;5033473;28;20167;-68
2023/07/18 01:36:40;;;;;;;3.00;1.90;;;18.80;99.90;;;;;;5030648;28;20488;-68
2023/07/18 01:39:06;;;;;;;2.50;1.67;;;18.80;99.90;;;;;;5033385;28;20924;-67
2023/07/18 01:41:31;;;;;;;2.37;1.50;;;18.70;99.90;;;;;;5031917;28;20212;-68
2023/07/18 01:43:57;;;;;;;3.33;1.83;;;18.70;99.90;;;;;;5033131;28;20178;-68
2023/07/18 01:46:24;;;;;;;3.33;1.53;;;18.70;99.90;;;;;;5032108;28;20191;-68
2023/07/18 01:48:49;;;;;;;5.30;1.70;;;18.60;99.90;;;;;;5033281;28;20493;-68
2023/07/18 01:51:15;;;;;;;5.57;1.47;;;18.60;99.90;;;;;;5033292;28;20487;-68
2023/07/18 01:53:41;;;;;;;4.07;1.80;;;18.60;99.90;;;;;;5033157;28;20650;-68
2023/07/18 01:56:06;;;;;;;3.00;1.63;;;18.60;99.90;;;;;;5031641;28;20689;-68
2023/07/18 01:58:32;;;;;;;4.13;2.23;;;18.60;99.90;;;;;;5032363;28;20634;-68
2023/07/18 02:00:57;;;;;;;7.07;1.67;;;18.60;99.90;;;;;;5033057;28;20195;-68
2023/07/18 02:03:23;;;;;;;3.40;1.27;;;18.60;99.90;;;;;;5033204;28;20231;-68
2023/07/18 02:05:48;;;;;;;3.27;1.43;;;18.70;99.90;;;;;;5033152;28;20191;-68
2023/07/18 02:08:14;;;;;;;5.53;1.63;;;18.70;99.90;;;;;;5033096;28;20168;-68
2023/07/18 02:10:40;;;;;;;1.70;1.60;;;18.80;99.90;;;;;;5033019;28;20167;-69
2023/07/18 02:13:05;;;;;;;1.80;1.60;;;18.80;99.90;;;;;;5032588;28;20178;-68
2023/07/18 02:15:31;;;;;;;3.20;1.77;;;18.80;99.90;;;;;;5032754;28;20286;-67
2023/07/18 02:17:56;;;;;;;3.57;1.40;;;18.70;99.90;;;;;;5033080;28;20164;-68
2023/07/18 02:20:22;;;;;;;2.50;2.00;;;18.70;99.90;;;;;;5032764;28;20171;-68
2023/07/18 02:22:48;;;;;;;3.67;1.47;;;18.70;99.90;;;;;;5031469;28;20171;-68
2023/07/18 02:25:17;;;;;;;3.20;1.70;;;18.60;99.90;;;;;;5032730;28;20195;-68
2023/07/18 02:27:43;;;;;;;3.23;1.70;;;18.50;99.90;;;;;;5030417;28;20928;-68
2023/07/18 02:30:12;;;;;;;2.73;1.33;;;18.30;99.90;;;;;;5032732;28;20987;-68
2023/07/18 02:32:39;;;;;;;2.33;1.57;;;18.20;99.90;;;;;;5032762;28;20777;-67
2023/07/18 02:35:09;;;;;;;1.87;1.20;;;18.20;99.90;;;;;;5032426;28;20449;-68
2023/07/18 02:37:34;;;;;;;1.83;1.40;;;18.20;99.90;;;;;;5032650;28;20433;-68
2023/07/18 02:40:03;;;;;;;2.20;1.50;;;18.20;99.90;;;;;;5032646;28;20904;-68
2023/07/18 02:42:31;;;;;;;2.63;1.47;;;18.30;99.90;;;;;;5032345;28;20156;-67
2023/07/18 02:44:57;;;;;;;1.70;1.50;;;18.30;99.90;;;;;;5032588;28;20453;-67
2023/07/18 02:47:22;;;;;;;3.30;1.40;;;18.10;99.90;;;;;;5032817;28;20402;-68
2023/07/18 02:49:48;;;;;;;3.87;2.00;;;18.10;99.90;;;;;;5036674;28;20183;-67
2023/07/18 02:52:13;;;;;;;2.07;1.30;;;18.00;99.90;;;;;;5036216;28;20645;-68
2023/07/18 02:54:39;;;;;;;2.50;1.70;;;18.00;99.90;;;;;;5036626;28;20179;-67
2023/07/18 02:57:05;;;;;;;2.47;1.30;;;18.00;99.90;;;;;;5035790;28;20278;-68
2023/07/18 02:59:30;;;;;;;2.20;1.40;;;18.00;99.90;;;;;;5028625;28;20163;-67
2023/07/18 03:01:57;;;;;;;3.87;1.50;;;17.90;99.90;;;;;;5036558;28;20455;-68
2023/07/18 03:04:23;;;;;;;5.63;1.40;;;17.90;99.90;;;;;;5036497;28;20163;-67
2023/07/18 03:06:51;;;;;;;2.20;1.40;;;17.90;99.90;;;;;;5036625;28;20410;-68
2023/07/18 03:09:17;;;;;;;2.60;1.50;;;17.90;99.90;;;;;;5036585;28;20748;-67
2023/07/18 03:11:43;;;;;;;5.83;1.90;;;18.00;99.90;;;;;;5036183;28;20460;-67
2023/07/18 03:14:11;;;;;;;2.77;1.40;;;18.00;99.90;;;;;;5036025;28;20410;-67
2023/07/18 03:16:40;;;;;;;4.70;1.83;;;18.10;99.90;;;;;;5035754;28;20519;-69
2023/07/18 03:19:08;;;;;;;2.30;1.60;;;18.10;99.90;;;;;;5034850;28;20426;-68
2023/07/18 03:21:34;;;;;;;2.37;1.90;;;18.00;99.90;;;;;;5036063;28;20828;-67
2023/07/18 03:24:00;;;;;;;3.13;2.70;;;18.00;99.90;;;;;;5035968;28;20544;-69
2023/07/18 03:26:26;;;;;;;3.93;2.20;;;18.00;99.90;;;;;;5034359;28;20278;-69
2023/07/18 03:28:51;;;;;;;3.43;1.67;;;18.00;99.90;;;;;;5035679;28;20496;-69
2023/07/18 03:31:17;;;;;;;2.87;1.40;;;18.00;99.90;;;;;;5036018;28;20174;-68
2023/07/18 03:33:42;;;;;;;4.43;1.70;;;18.00;99.90;;;;;;5035867;28;20568;-69
2023/07/18 03:36:08;;;;;;;2.67;1.77;;;17.90;99.90;;;;;;5035492;28;20198;-68
2023/07/18 03:38:34;;;;;;;3.03;1.70;;;17.90;99.90;;;;;;5035904;28;20163;-67
2023/07/18 03:40:59;;;;;;;4.37;1.80;;;17.80;99.90;;;;;;5035824;28;20170;-67
2023/07/18 03:43:25;;;;;;;2.70;1.53;;;17.70;99.90;;;;;;5033871;28;20250;-68
2023/07/18 03:45:51;;;;;;;2.53;1.77;;;17.60;99.90;;;;;;5035563;28;20555;-68
2023/07/18 03:48:17;;;;;;;2.53;1.33;;;17.60;99.90;;;;;;5035644;28;20173;-68
2023/07/18 03:50:43;;;;;;;4.27;1.90;;;17.70;99.90;;;;;;5035492;28;20251;-68
2023/07/18 03:53:08;;;;;;;2.77;1.73;;;17.60;99.90;;;;;;5035704;28;20446;-68
2023/07/18 03:55:34;;;;;;;2.00;1.70;;;17.50;99.90;;;;;;5035546;28;20555;-67
2023/07/18 03:58:00;;;;;;;2.70;1.63;;;17.40;99.90;;;;;;5034541;28;20661;-66
2023/07/18 04:00:26;;;;;;;3.77;1.60;;;17.40;99.90;;;;;;5034504;28;20518;-68
2023/07/18 04:02:51;;;;;;;3.90;1.83;;;17.50;99.90;;;;;;5035452;28;20193;-67
2023/07/18 04:05:18;;;;;;;2.77;1.50;;;17.50;99.90;;;;;;5035264;28;20429;-68
2023/07/18 04:07:44;;;;;;;4.17;1.63;;;17.60;99.90;;;;;;5035161;28;20217;-68
2023/07/18 04:10:13;;;;;;;2.67;1.70;;;17.70;99.90;;;;;;5035290;28;20410;-67
2023/07/18 04:12:39;;;;;;;1.90;1.40;;;17.70;99.90;;;;;;5034820;28;20421;-67
2023/07/18 04:15:09;;;;;;;2.17;1.50;;;17.80;99.90;;;;;;5034878;28;20461;-68
2023/07/18 04:17:35;;;;;;;4.47;1.60;;;17.80;99.90;;;;;;5035082;28;20418;-68
2023/07/18 04:20:03;;;;;;;5.30;2.10;;;17.80;99.90;;;;;;5033749;28;20406;-67
2023/07/18 04:22:32;;;;;;;5.83;1.73;;;17.70;99.90;;;;;;5034878;28;20167;-67
2023/07/18 04:24:58;;;;;;;2.33;1.60;;;17.70;99.90;;;;;;5034893;28;20488;-67
2023/07/18 04:27:26;;;;;;;3.40;1.80;;;17.80;99.90;;;;;;5029046;28;20414;-68
2023/07/18 04:29:52;;;;;;;3.07;1.93;;;17.80;99.90;;;;;;5034913;28;20401;-68
2023/07/18 04:32:18;;;;;;;2.03;1.60;;;17.70;99.90;;;;;;5034915;28;20485;-68
2023/07/18 04:34:44;;;;;;;2.60;1.50;;;17.70;99.90;;;;;;5034816;28;20430;-68
2023/07/18 04:37:09;;;;;;;3.00;1.50;;;17.80;99.90;;;;;;5034723;28;20440;-68
2023/07/18 04:39:35;;;;;;;2.83;1.73;;;17.90;99.90;;;;;;5026280;28;20168;-67
2023/07/18 04:42:01;;;;;;;5.13;2.33;;;18.00;99.90;;;;;;5034230;28;20665;-67
2023/07/18 04:44:27;;;;;;;3.90;1.70;;;18.00;99.90;;;;;;5034516;28;20156;-68
2023/07/18 04:46:53;;;;;;;1.80;1.30;;;18.00;99.90;;;;;;5030364;28;20417;-67
2023/07/18 04:49:19;;;;;;;3.10;1.90;;;17.90;99.90;;;;;;5033095;28;20197;-67
2023/07/18 04:51:44;;;;;;;4.17;1.90;;;18.00;99.90;;;;;;5029427;28;20565;-67
2023/07/18 04:54:10;;;;;;;6.23;2.20;;;18.00;99.90;;;;;;5030372;28;20402;-68
2023/07/18 04:56:36;;;;;;;2.47;1.83;;;18.00;99.90;;;;;;5034059;28;20203;-67
2023/07/18 04:59:01;;;;;;;3.43;1.80;;;17.90;99.90;;;;;;5034488;28;20241;-67
2023/07/18 05:01:28;;;;;;;4.50;2.00;;;18.00;99.90;;;;;;5034077;28;20242;-67
2023/07/18 05:03:55;;;;;;;3.93;2.17;;;18.10;99.90;;;;;;5033885;28;20174;-68
2023/07/18 05:06:20;;;;;;;4.10;2.50;;;18.10;99.90;;;;;;5034303;28;20461;-67
2023/07/18 05:08:46;;;;;;;3.00;2.30;;;18.10;99.90;;;;;;5034386;28;20430;-67
2023/07/18 05:11:11;;;;;;;4.87;2.30;;;18.10;99.90;;;;;;5034131;28;20175;-67
2023/07/18 05:13:37;;;;;;;3.70;2.50;;;18.20;99.90;;;;;;5034249;28;20255;-67
2023/07/18 05:16:03;;;;;;;3.43;2.30;;;18.30;99.90;;;;;;5033799;28;20199;-68
2023/07/18 05:18:29;;;;;;;3.70;2.83;;;18.40;99.90;;;;;;5030881;28;20171;-66
2023/07/18 05:20:56;;;;;;;5.40;2.57;;;18.50;99.90;;;;;;5033958;28;20452;-68
2023/07/18 05:23:22;;;;;;;5.63;2.90;;;18.60;99.90;;;;;;5033674;28;20577;-68
2023/07/18 05:25:48;;;;;;;5.20;2.50;;;18.60;99.90;;;;;;5033630;28;20457;-68
2023/07/18 05:28:14;;;;;;;3.60;2.30;;;18.70;99.90;;;;;;5031533;28;20175;-68
2023/07/18 05:30:39;;;;;;;3.63;2.50;;;18.80;99.90;;;;;;5033497;28;20406;-68
2023/07/18 05:33:05;;;;;;;4.40;2.83;;;18.90;99.90;;;;;;5032979;28;20254;-69
2023/07/18 05:35:30;;;;;;;4.63;2.50;;;19.00;99.90;;;;;;5033453;28;20569;-67
2023/07/18 05:37:56;;;;;;;6.07;3.17;;;19.20;99.90;;;;;;5033353;28;20578;-68
2023/07/18 05:40:22;;;;;;;3.93;2.37;;;19.30;99.90;;;;;;5033868;28;20182;-68
2023/07/18 05:42:48;;;;;;;5.77;2.43;;;19.40;99.90;;;;;;5033489;28;20540;-68
2023/07/18 05:45:14;;;;;;;7.07;3.53;;;19.50;99.90;;;;;;5033076;28;20612;-67
2023/07/18 05:47:40;;;;;;;4.60;2.83;;;19.60;99.90;;;;;;5032836;28;20175;-68
2023/07/18 05:50:06;;;;;;;4.90;3.20;;;19.70;99.90;;;;;;5033459;28;20409;-68
2023/07/18 05:52:32;;;;;;;5.53;3.00;;;19.80;99.90;;;;;;5033309;28;20274;-66
2023/07/18 05:54:58;;;;;;;4.67;3.73;;;20.00;99.90;;;;;;5033366;28;20417;-66
2023/07/18 05:57:24;;;;;;;7.00;3.20;;;20.10;99.90;;;;;;5031935;28;20948;-68
2023/07/18 05:59:49;;;;;;;5.70;3.93;;;20.20;99.90;;;;;;5032908;28;20254;-67
2023/07/18 06:02:16;;;;;;;6.43;3.77;;;20.20;99.90;;;;;;5032190;28;20179;-67
2023/07/18 06:04:42;;;;;;;6.90;3.87;;;20.30;99.90;;;;;;5032592;28;20191;-68
2023/07/18 06:07:07;;;;;;;5.73;4.37;;;20.40;99.90;;;;;;5031631;28;20409;-69
2023/07/18 06:09:33;;;;;;;5.90;4.23;;;20.50;99.90;;;;;;5032750;28;20179;-67
2023/07/18 06:11:59;;;;;;;5.10;4.17;;;20.60;99.90;;;;;;5032829;28;20627;-69
2023/07/18 06:14:24;;;;;;;6.00;4.27;;;20.60;99.90;;;;;;5032821;28;20179;-68
2023/07/18 06:16:50;;;;;;;5.70;4.20;;;20.70;99.90;;;;;;5032987;28;20292;-68
2023/07/18 06:19:16;;;;;;;4.90;3.20;;;20.80;99.90;;;;;;5032496;28;20167;-68
2023/07/18 06:21:42;;;;;;;5.10;3.93;;;20.90;99.90;;;;;;5032654;28;20190;-68
2023/07/18 06:24:07;;;;;;;7.50;3.90;;;20.80;99.90;;;;;;5032393;28;20229;-68
2023/07/18 06:26:33;;;;;;;5.27;3.83;;;21.00;99.90;;;;;;5030146;28;20219;-67
2023/07/18 06:28:58;;;;;;;4.73;4.20;;;21.00;99.90;;;;;;5032410;28;20175;-69
2023/07/18 06:31:24;;;;;;;6.83;4.07;;;21.10;99.90;;;;;;5032894;28;20185;-68
2023/07/18 06:33:50;;;;;;;5.57;4.03;;;21.10;99.90;;;;;;5032778;28;20519;-68
2023/07/18 06:36:16;;;;;;;9.10;3.93;;;21.10;99.90;;;;;;5032435;28;20653;-69
2023/07/18 06:38:42;;;;;;;4.57;3.40;;;21.10;99.90;;;;;;5031264;28;20167;-67
2023/07/18 06:41:08;;;;;;;9.03;3.90;;;21.40;99.90;;;;;;5032385;28;20418;-68
2023/07/18 06:43:33;;;;;;;6.37;3.60;;;21.50;99.90;;;;;;5031193;28;20402;-67
2023/07/18 06:45:59;;;;;;;5.50;3.17;;;21.60;99.90;;;;;;5032528;28;20938;-68
2023/07/18 06:48:25;;;;;;;4.73;2.43;;;21.50;99.90;;;;;;5031754;28;20179;-68
2023/07/18 06:50:53;;;;;;;4.00;3.03;;;21.40;99.90;;;;;;5031446;28;20190;-69
2023/07/18 06:53:20;;;;;;;4.80;2.80;;;21.50;99.90;;;;;;5025183;28;20178;-68
2023/07/18 06:55:48;;;;;;;3.67;2.80;;;21.70;99.90;;;;;;5024119;28;20825;-68
2023/07/18 06:58:14;;;;;;;3.50;2.93;;;21.80;99.90;;;;;;5030548;28;20410;-68
2023/07/18 07:00:40;;;;;;;5.20;2.90;;;21.80;99.90;;;;;;5032517;28;20410;-68
2023/07/18 07:03:09;;;;;;;4.57;3.30;;;21.70;99.90;;;;;;5032465;28;20430;-67
2023/07/18 07:05:38;;;;;;;5.00;3.00;;;21.60;99.90;;;;;;5032441;28;20202;-66
2023/07/18 07:08:08;;;;;;;7.50;3.20;;;21.60;99.90;;;;;;5032089;28;20496;-67
2023/07/18 07:10:35;;;;;;;5.10;3.37;;;21.40;99.90;;;;;;5031783;28;20417;-67
2023/07/18 07:13:01;;;;;;;4.43;2.67;;;21.40;99.90;;;;;;5031973;28;20438;-67
2023/07/18 07:15:26;;;;;;;4.13;3.53;;;21.60;99.90;;;;;;5031981;28;20492;-67
2023/07/18 07:17:52;;;;;;;4.73;3.07;;;21.70;99.90;;;;;;5032172;28;20266;-67
2023/07/18 07:20:19;;;;;;;5.20;2.93;;;21.90;99.90;;;;;;5032122;28;20203;-68
2023/07/18 07:22:47;;;;;;;6.13;3.17;;;22.10;99.90;;;;;;5032306;28;20614;-67
2023/07/18 07:25:15;;;;;;;4.23;3.00;;;22.10;99.90;;;;;;5031965;28;20425;-68
2023/07/18 07:27:43;;;;;;;11.20;3.83;;;22.00;99.90;;;;;;5029912;28;20896;-67
2023/07/18 07:30:10;;;;;;;5.30;3.30;;;21.90;99.90;;;;;;5032054;28;20501;-67
2023/07/18 07:32:35;;;;;;;4.00;3.30;;;21.90;99.90;;;;;;5030828;28;20522;-67
2023/07/18 07:35:01;;;;;;;4.07;2.80;;;22.10;99.90;;;;;;5033081;28;20779;-68
2023/07/18 07:37:27;;;;;;;7.20;2.70;;;22.10;99.80;;;;;;5035549;28;20222;-67
2023/07/18 07:39:52;;;;;;;4.63;2.27;;;22.00;98.50;;;;;;5035671;28;20168;-68
2023/07/18 07:42:18;;;;;;;3.70;2.60;;;22.10;97.70;;;;;;5035274;28;20167;-67
2023/07/18 07:44:45;;;;;;;4.60;2.90;;;22.40;97.80;;;;;;5035835;28;20270;-67
2023/07/18 07:47:11;;;;;;;4.57;2.97;;;22.60;99.10;;;;;;5035759;28;20203;-68
2023/07/18 07:49:36;;;;;;;4.70;3.17;;;22.70;98.50;;;;;;5027165;28;20962;-69
2023/07/18 07:52:02;;;;;;;3.43;2.50;;;22.60;98.80;;;;;;5035480;28;20546;-68
2023/07/18 07:54:27;;;;;;;4.93;3.03;;;22.90;98.00;;;;;;5035109;28;20179;-67
2023/07/18 07:56:53;;;;;;;4.87;3.00;;;23.00;98.40;;;;;;5033120;28;20222;-67
2023/07/18 07:59:19;;;;;;;6.30;2.77;;;23.20;97.70;;;;;;5035001;28;20639;-68
2023/07/18 08:01:45;;;;;;;4.30;2.40;;;23.10;95.90;;;;;;5035348;28;20174;-68
2023/07/18 08:04:11;;;;;;;4.47;2.70;;;23.00;96.00;;;;;;5035201;28;20406;-68
2023/07/18 08:06:36;;;;;;;4.87;3.00;;;23.00;95.00;;;;;;5035081;28;20757;-67
2023/07/18 08:09:02;;;;;;;3.77;2.80;;;23.00;95.40;;;;;;5035084;28;20489;-67
2023/07/18 08:11:28;;;;;;;2.27;1.80;;;23.10;96.10;;;;;;5035053;28;20167;-67
2023/07/18 08:13:54;;;;;;;3.63;2.13;;;23.20;94.20;;;;;;5034470;28;20199;-67
2023/07/18 08:16:20;;;;;;;3.97;2.37;;;23.40;95.00;;;;;;5034580;28;20203;-68
2023/07/18 08:18:46;;;;;;;3.63;2.20;;;23.30;94.00;;;;;;5035338;28;20163;-67
2023/07/18 08:21:11;;;;;;;5.23;2.60;;;23.30;93.70;;;;;;5034922;28;20818;-67
2023/07/18 08:23:37;;;;;;;2.57;2.30;;;23.20;93.50;;;;;;5034783;28;20167;-67
2023/07/18 08:26:03;;;;;;;3.60;2.37;;;23.30;94.40;;;;;;5034819;28;20192;-67
2023/07/18 08:28:28;;;;;;;2.60;2.17;;;23.20;93.60;;;;;;5033910;28;20174;-65
2023/07/18 08:30:54;;;;;;;6.67;2.70;;;23.10;93.60;;;;;;5034919;28;20277;-66
2023/07/18 08:33:21;;;;;;;3.87;3.00;;;23.40;93.80;;;;;;5034755;28;20172;-69
2023/07/18 08:35:49;;;;;;;3.83;2.60;;;23.60;93.80;;;;;;5034796;28;20195;-66
2023/07/18 08:38:14;;;;;;;3.07;2.20;;;23.70;94.00;;;;;;5034476;28;20430;-66
2023/07/18 08:40:43;;;;;;;4.37;2.73;;;23.80;94.20;;;;;;5034385;28;20437;-67
2023/07/18 08:43:14;;;;;;;4.70;2.83;;;23.90;95.00;;;;;;5033763;28;20691;-68
2023/07/18 08:45:40;;;;;;;4.40;3.20;;;23.90;94.70;;;;;;5034015;28;20430;-67
2023/07/18 08:48:06;;;;;;;4.50;2.77;;;24.10;95.10;;;;;;5034338;28;20513;-66
2023/07/18 08:50:33;;;;;;;4.17;2.70;;;24.20;94.20;;;;;;5034563;28;20434;-68
2023/07/18 08:52:59;;;;;;;6.10;2.60;;;24.60;94.30;;;;;;5028581;28;20409;-68
2023/07/18 08:55:29;;;;;;;6.13;3.17;;;24.70;93.10;;;;;;5033934;28;20963;-67
2023/07/18 08:57:55;;;;;;;4.73;3.10;;;24.70;93.10;;;;;;5033049;28;20406;-67
2023/07/18 09:00:20;;;;;;;3.67;2.20;;;24.70;93.00;;;;;;5034275;28;20399;-68
2023/07/18 09:02:48;;;;;;;6.40;3.23;;;24.60;93.20;;;;;;5034294;28;20479;-67
2023/07/18 09:05:32;;;;;;;4.07;2.80;;;24.80;93.40;;;;;;5026444;28;20688;-67
2023/07/18 09:07:59;;;;;;;2.80;2.40;;;24.80;93.50;;;;;;5028455;28;20442;-67
2023/07/18 09:10:25;;;;;;;2.73;2.20;;;25.00;92.90;;;;;;5026106;28;20492;-67
2023/07/18 09:12:51;;;;;;;2.70;2.33;;;25.00;91.50;;;;;;5033453;28;20409;-66
2023/07/18 09:15:20;;;;;;;4.83;2.40;;;25.00;92.20;;;;;;5033778;28;20450;-68
2023/07/18 09:17:56;;;;;;;3.20;2.70;;;25.20;92.10;;;;;;5033858;28;20160;-67
2023/07/18 09:20:24;;;;;;;3.17;2.50;;;25.40;91.60;;;;;;5027626;28;20402;-67
2023/07/18 09:22:53;;;;;;;6.50;2.83;;;25.50;91.20;;;;;;5025793;28;20394;-67
2023/07/18 09:25:19;;;;;;;5.43;3.10;;;25.50;91.50;;;;;;5033790;28;20410;-67
2023/07/18 09:27:48;;;;;;;5.37;2.67;;;25.40;91.30;;;;;;5031731;28;20410;-67
2023/07/18 09:30:15;;;;;;;3.10;2.07;;;25.40;91.30;;;;;;5033676;28;20413;-69
2023/07/18 09:32:41;;;;;;;12.83;2.60;;;25.40;91.20;;;;;;5033708;28;20437;-67
2023/07/18 09:35:11;;;;;;;4.10;2.23;;;25.70;90.90;;;;;;5032030;28;20936;-68
2023/07/18 09:37:47;;;;;;;4.40;2.47;;;25.70;90.00;;;;;;5033867;28;20410;-67
2023/07/18 09:40:18;;;;;;;3.07;2.40;;;25.80;89.50;;;;;;5033553;28;20382;-67
2023/07/18 09:42:46;;;;;;;6.80;3.00;;;26.10;91.40;;;;;;5032947;28;20461;-67
2023/07/18 09:45:15;;;;;;;3.60;2.37;;;26.30;89.50;;;;;;5033321;28;20411;-66
2023/07/18 09:47:42;;;;;;;4.47;2.67;;;26.20;88.00;;;;;;5025431;28;20493;-67
2023/07/18 09:50:09;;;;;;;3.00;2.40;;;26.60;88.90;;;;;;5033022;28;20390;-66
2023/07/18 09:52:39;;;;;;;3.70;2.83;;;26.80;86.00;;;;;;5033092;28;20401;-68
2023/07/18 09:55:07;;;;;;;3.27;2.90;;;26.70;86.20;;;;;;5032084;28;20497;-67
2023/07/18 09:57:36;;;;;;;4.63;2.67;;;27.10;89.80;;;;;;5022811;28;20449;-67
2023/07/18 10:00:06;;;;;;;5.20;2.50;;;27.60;88.40;;;;;;5032752;28;20414;-68
2023/07/18 10:02:34;;;;;;;4.80;2.90;;;28.00;85.20;;;;;;5033025;28;20786;-67
2023/07/18 10:05:02;;;;;;;4.10;2.57;;;28.10;82.80;;;;;;5033007;28;20468;-68
2023/07/18 10:07:29;;;;;;;6.63;3.27;;;28.00;81.30;;;;;;5032909;28;20406;-67
2023/07/18 10:09:56;;;;;;;5.43;2.87;;;28.00;81.50;;;;;;5032992;28;20755;-67
2023/07/18 10:12:22;;;;;;;3.57;2.27;;;28.00;81.30;;;;;;5032702;28;20775;-68
2023/07/18 10:14:59;;;;;;;5.00;2.90;;;28.10;81.30;;;;;;5032363;28;20442;-69
2023/07/18 10:17:26;;;;;;;3.50;2.70;;;28.30;82.80;;;;;;5032851;28;20202;-68
2023/07/18 10:19:53;;;;;;;3.93;2.80;;;28.30;82.90;;;;;;5033123;28;20539;-68
2023/07/18 10:22:29;;;;;;;4.20;2.47;;;28.20;82.90;;;;;;5032992;28;20971;-67
2023/07/18 10:25:00;;;;;;;5.77;3.50;;;28.20;80.50;;;;;;5031509;28;20195;-68
2023/07/18 10:27:36;;;;;;;4.90;3.00;;;28.00;80.70;;;;;;5025576;28;20414;-67
2023/07/18 10:30:12;;;;;;;4.87;3.03;;;27.70;85.00;;;;;;5032480;28;20398;-68
2023/07/18 10:32:38;;;;;;;5.20;3.60;;;27.70;86.60;;;;;;5032519;28;20398;-67
2023/07/18 10:35:10;;;;;;;3.83;2.97;;;27.40;85.00;;;;;;5032390;28;20486;-66
2023/07/18 10:37:37;;;;;;;4.20;3.73;;;27.30;87.30;;;;;;5032336;28;20454;-67
2023/07/18 10:40:08;;;;;;;4.90;3.00;;;27.30;87.00;;;;;;5032242;28;20460;-68
2023/07/18 10:42:34;;;;;;;8.30;3.33;;;27.00;85.20;;;;;;5024495;28;20402;-68
2023/07/18 10:45:00;;;;;;;5.27;3.00;;;26.60;86.20;;;;;;5031607;28;20856;-69
2023/07/18 10:47:27;;;;;;;5.27;2.80;;;26.60;85.80;;;;;;5025830;28;20465;-68
2023/07/18 10:49:53;;;;;;;5.77;3.40;;;27.00;85.30;;;;;;5031225;28;20167;-68
2023/07/18 10:52:20;;;;;;;4.73;3.23;;;27.40;84.50;;;;;;5032377;28;20402;-68
2023/07/18 10:55:06;;;;;;;3.77;3.00;;;28.10;82.70;;;;;;5032520;28;20865;-68
2023/07/18 10:57:34;;;;;;;5.20;3.20;;;28.90;80.40;;;;;;5026042;28;20457;-68
2023/07/18 11:00:04;;;;;;;3.20;2.60;;;29.10;79.40;;;;;;5032294;28;20417;-70
2023/07/18 11:02:36;;;;;;;4.27;3.10;;;29.10;78.10;;;;;;5032033;28;20549;-67
2023/07/18 11:05:12;;;;;;;5.40;3.70;;;29.40;79.30;;;;;;5032490;28;20414;-69
2023/07/18 11:07:43;;;;;;;4.00;3.47;;;29.30;78.20;;;;;;5032320;28;20402;-69
2023/07/18 11:10:10;;;;;;;5.17;2.90;;;29.00;76.90;;;;;;5035341;28;20768;-68
2023/07/18 11:12:36;;;;;;;4.30;3.40;;;29.00;76.70;;;;;;5028100;28;20863;-68
2023/07/18 11:15:06;;;;;;;4.37;3.17;;;28.40;77.50;;;;;;5036280;28;20519;-68
2023/07/18 11:17:32;;;;;;;5.07;3.67;;;28.30;78.80;;;;;;5035683;28;20670;-68
2023/07/18 11:19:58;;;;;;;3.90;3.23;;;28.20;80.70;;;;;;5036415;28;20463;-68
2023/07/18 11:22:24;;;;;;;5.80;3.33;;;27.70;80.30;;;;;;5036385;28;20467;-68
2023/07/18 11:24:51;;;;;;;3.20;2.83;;;27.50;81.80;;;;;;5036259;28;20201;-68
2023/07/18 11:27:24;;;;;;;9.57;3.77;;;27.50;82.50;;;;;;5035494;28;20448;-69
2023/07/18 11:30:04;;;;;;;4.97;3.37;;;27.60;82.30;;;;;;5032793;28;20421;-67
2023/07/18 11:32:40;;;;;;;3.37;2.90;;;27.70;84.90;;;;;;5036140;28;20932;-68
2023/07/18 11:35:11;;;;;;;3.63;3.00;;;27.60;86.00;;;;;;5035864;28;20436;-68
2023/07/18 11:37:46;;;;;;;5.80;3.47;;;27.80;85.20;;;;;;5035637;28;20449;-69
2023/07/18 11:40:23;;;;;;;3.40;3.00;;;27.60;84.10;;;;;;5035614;28;20382;-68
2023/07/18 11:42:53;;;;;;;4.27;3.20;;;27.20;85.70;;;;;;5035165;28;20421;-69
2023/07/18 11:45:21;;;;;;;3.73;3.20;;;27.00;86.20;;;;;;5035504;28;20521;-68
2023/07/18 11:47:51;;;;;;;4.20;3.43;;;26.90;86.50;;;;;;5027185;28;20793;-68
2023/07/18 11:50:18;;;;;;;5.07;3.27;;;27.00;89.50;;;;;;5035470;28;20493;-68
2023/07/18 11:52:50;;;;;;;6.17;3.30;;;26.80;91.30;;;;;;5035375;28;20501;-68
2023/07/18 11:55:17;;;;;;;4.20;3.50;;;26.60;90.80;;;;;;5035230;28;20771;-68
2023/07/18 11:57:44;;;;;;;3.63;3.13;;;26.90;91.50;;;;;;5032674;28;20769;-68
2023/07/18 12:00:11;;;;;;;4.40;3.70;;;27.20;92.30;;;;;;5034970;28;20402;-68
2023/07/18 12:02:37;;;;;;;4.07;2.97;;;27.40;92.20;;;;;;5035177;28;20406;-68
2023/07/18 12:05:04;;;;;;;6.63;3.13;;;27.50;93.80;;;;;;5035577;28;20445;-69
2023/07/18 12:07:29;;;;;;;4.43;3.03;;;27.60;92.70;;;;;;5035099;28;20804;-68
2023/07/18 12:09:55;;;;;;;6.80;3.93;;;27.80;93.30;;;;;;5035121;28;20428;-69
2023/07/18 12:12:21;;;;;;;4.00;3.40;;;28.00;93.10;;;;;;5034691;28;20195;-69
2023/07/18 12:14:47;;;;;;;4.17;3.63;;;28.00;92.30;;;;;;5035506;28;20231;-68
2023/07/18 12:17:12;;;;;;;5.37;3.50;;;27.80;92.30;;;;;;5034922;28;20490;-68
2023/07/18 12:19:38;;;;;;;6.30;3.47;;;27.70;91.60;;;;;;5034952;28;20167;-70
2023/07/18 12:22:03;;;;;;;3.80;3.40;;;27.70;91.40;;;;;;5034427;28;20599;-68
2023/07/18 12:24:29;;;;;;;3.90;2.93;;;27.90;91.30;;;;;;5034840;28;20167;-68
2023/07/18 12:26:54;;;;;;;3.63;3.33;;;28.00;90.10;;;;;;5032992;28;20233;-68
2023/07/18 12:29:22;;;;;;;6.73;3.27;;;28.10;89.60;;;;;;5033410;28;20187;-70
2023/07/18 12:31:49;;;;;;;4.50;3.97;;;28.10;90.10;;;;;;5026622;28;20167;-69
2023/07/18 12:34:16;;;;;;;4.10;3.50;;;28.20;89.10;;;;;;5034610;28;20418;-69
2023/07/18 12:36:41;;;;;;;4.47;3.47;;;28.60;90.00;;;;;;5034881;28;20450;-70
2023/07/18 12:39:07;;;;;;;4.53;3.33;;;29.30;88.60;;;;;;5034530;28;20909;-68
2023/07/18 12:41:33;;;;;;;6.23;3.77;;;29.30;85.90;;;;;;5028133;28;20255;-70
2023/07/18 12:43:59;;;;;;;3.67;3.20;;;29.40;86.10;;;;;;5032327;28;20174;-69
2023/07/18 12:46:26;;;;;;;5.70;3.60;;;29.80;82.40;;;;;;5034466;28;20426;-69